createdAt,value
2023-02-20T00:01:06.526Z,4.93
2023-02-20T00:03:33.834Z,4.18
2023-02-20T00:06:01.202Z,3.95
2023-02-20T00:08:28.418Z,3.00
2023-02-20T00:10:55.646Z,3.55
2023-02-20T00:13:28.561Z,3.03
2023-02-20T00:15:56.031Z,1.75
2023-02-20T00:18:23.331Z,1.92
2023-02-20T00:20:50.532Z,4.05
2023-02-20T00:23:17.814Z,1.80
2023-02-20T00:25:45.116Z,2.03
2023-02-20T00:28:12.401Z,2.70
2023-02-20T00:30:39.785Z,3.47
2023-02-20T00:33:07.031Z,6.63
2023-02-20T00:35:34.361Z,4.93
2023-02-20T00:38:01.568Z,3.38
2023-02-20T00:40:28.775Z,4.15
2023-02-20T00:42:55.992Z,4.15
2023-02-20T00:45:23.197Z,2.75
2023-02-20T00:47:50.421Z,6.00
2023-02-20T00:50:18.347Z,6.78
2023-02-20T00:52:45.854Z,2.10
2023-02-20T00:55:13.299Z,3.15
2023-02-20T00:57:40.644Z,1.58
2023-02-20T01:00:16.605Z,3.65
2023-02-20T01:02:44.017Z,2.00
2023-02-20T01:05:11.333Z,4.95
2023-02-20T01:07:38.546Z,3.78
2023-02-20T01:12:35.535Z,5.13
2023-02-20T01:15:03.955Z,3.60
2023-02-20T01:17:31.199Z,3.95
2023-02-20T01:19:58.517Z,2.75
2023-02-20T01:22:26.159Z,3.85
2023-02-20T01:24:53.338Z,3.10
2023-02-20T01:27:20.657Z,2.88
2023-02-20T01:29:48.005Z,2.67
2023-02-20T01:32:15.303Z,3.63
2023-02-20T01:34:42.534Z,3.67
2023-02-20T01:37:14.156Z,3.85
2023-02-20T01:39:41.425Z,2.40
2023-02-20T01:42:14.823Z,3.80
2023-02-20T01:44:42.309Z,3.30
2023-02-20T01:47:15.230Z,4.40
2023-02-20T01:50:04.838Z,3.80
2023-02-20T01:52:34.571Z,3.22
2023-02-20T01:55:21.250Z,4.10
2023-02-20T01:57:59.026Z,3.08
2023-02-20T02:00:26.962Z,2.97
2023-02-20T02:03:05.689Z,3.13
2023-02-20T02:05:34.882Z,3.38
2023-02-20T02:08:05.662Z,5.05
2023-02-20T02:10:40.650Z,4.45
2023-02-20T02:13:08.077Z,3.80
2023-02-20T02:15:35.279Z,3.55
2023-02-20T02:18:18.034Z,2.72
2023-02-20T02:21:09.860Z,2.88
2023-02-20T02:24:09.849Z,4.22
2023-02-20T02:27:04.262Z,7.82
2023-02-20T02:29:53.455Z,4.55
2023-02-20T02:32:49.314Z,2.80
2023-02-20T02:35:36.256Z,4.20
2023-02-20T02:38:32.947Z,4.50
2023-02-20T02:41:20.568Z,2.95
2023-02-20T02:44:01.794Z,3.92
2023-02-20T02:46:37.396Z,5.18
2023-02-20T02:49:26.169Z,3.28
2023-02-20T02:51:56.230Z,4.38
2023-02-20T02:54:26.755Z,6.50
2023-02-20T02:57:15.231Z,3.50
2023-02-20T02:59:44.366Z,4.43
2023-02-20T03:02:15.755Z,5.82
2023-02-20T03:04:47.175Z,4.82
2023-02-20T03:07:17.642Z,4.43
2023-02-20T03:10:18.225Z,4.15
2023-02-20T03:12:50.742Z,4.10
2023-02-20T03:15:35.422Z,2.83
2023-02-20T03:18:15.123Z,4.10
2023-02-20T03:20:53.919Z,5.15
2023-02-20T03:23:26.486Z,2.85
2023-02-20T03:26:01.657Z,2.60
2023-02-20T03:28:34.305Z,3.08
2023-02-20T03:31:10.747Z,4.28
2023-02-20T03:34:17.923Z,4.78
2023-02-20T03:37:09.612Z,4.53
2023-02-20T03:40:00.910Z,2.53
2023-02-20T03:42:49.960Z,4.57
2023-02-20T03:45:28.847Z,3.75
2023-02-20T03:48:02.008Z,6.13
2023-02-20T03:50:49.960Z,5.57
2023-02-20T03:53:18.249Z,4.85
2023-02-20T03:55:48.201Z,4.18
2023-02-20T03:58:23.149Z,7.22
2023-02-20T04:00:55.104Z,3.53
2023-02-20T04:03:27.824Z,6.32
2023-02-20T04:05:57.177Z,7.80
2023-02-20T04:08:46.549Z,6.78
2023-02-20T04:11:30.360Z,6.25
2023-02-20T04:13:59.209Z,6.30
2023-02-20T04:16:26.879Z,5.00
2023-02-20T04:18:54.416Z,5.90
2023-02-20T04:22:02.376Z,7.97
2023-02-20T04:25:22.892Z,8.13
2023-02-20T04:27:51.151Z,11.15
2023-02-20T04:30:19.023Z,6.82
2023-02-20T04:32:46.366Z,10.05
2023-02-20T04:35:20.157Z,6.72
2023-02-20T04:40:19.510Z,4.97
2023-02-20T04:42:46.751Z,9.30
2023-02-20T04:45:14.422Z,13.82
2023-02-20T04:47:41.647Z,6.15
2023-02-20T04:50:09.287Z,9.48
2023-02-20T04:52:37.378Z,4.93
2023-02-20T04:55:04.820Z,8.40
2023-02-20T04:57:32.170Z,5.18
2023-02-20T04:59:59.549Z,6.28
2023-02-20T05:02:26.800Z,5.72
2023-02-20T05:04:54.076Z,11.65
2023-02-20T05:07:21.366Z,8.68
2023-02-20T05:09:48.627Z,6.93
2023-02-20T05:12:16.876Z,6.18
2023-02-20T05:14:44.051Z,6.38
2023-02-20T05:17:11.251Z,8.70
2023-02-20T05:19:38.438Z,12.30
2023-02-20T05:22:22.612Z,7.97
2023-02-20T05:24:52.904Z,6.28
2023-02-20T05:27:22.104Z,5.15
2023-02-20T05:29:55.048Z,5.57
2023-02-20T05:32:24.475Z,5.47
2023-02-20T05:34:54.160Z,6.82
2023-02-20T05:37:25.721Z,5.65
2023-02-20T05:39:53.442Z,4.50
2023-02-20T05:42:24.274Z,4.97
2023-02-20T05:44:51.482Z,6.07
2023-02-20T05:47:18.721Z,7.75
2023-02-20T05:49:46.582Z,4.80
2023-02-20T05:52:13.792Z,6.30
2023-02-20T05:54:42.193Z,3.92
2023-02-20T05:57:11.832Z,5.60
2023-02-20T05:59:39.493Z,5.80
2023-02-20T06:02:06.834Z,5.03
2023-02-20T06:04:34.092Z,5.63
2023-02-20T06:07:01.306Z,4.60
2023-02-20T06:09:28.531Z,4.18
2023-02-20T06:11:56.832Z,4.57
2023-02-20T06:14:26.036Z,7.57
2023-02-20T06:16:53.779Z,6.18
2023-02-20T06:19:23.683Z,4.75
2023-02-20T06:21:54.758Z,4.90
2023-02-20T06:24:22.200Z,3.03
2023-02-20T06:26:49.906Z,4.65
2023-02-20T06:29:17.556Z,3.90
2023-02-20T06:31:44.894Z,6.00
2023-02-20T06:34:12.914Z,5.07
2023-02-20T06:36:41.774Z,6.25
2023-02-20T06:39:11.304Z,6.22
2023-02-20T06:41:38.764Z,4.38
2023-02-20T06:44:06.048Z,5.15
2023-02-20T06:46:33.328Z,3.53
2023-02-20T06:49:00.658Z,3.22
2023-02-20T06:51:34.656Z,2.53
2023-02-20T06:54:03.490Z,3.63
2023-02-20T06:56:33.016Z,2.65
2023-02-20T06:59:01.368Z,3.90
2023-02-20T07:01:31.132Z,4.75
2023-02-20T07:03:59.994Z,5.13
2023-02-20T07:06:27.703Z,5.35
2023-02-20T07:08:54.903Z,2.20
2023-02-20T07:11:23.556Z,4.28
2023-02-20T07:13:51.292Z,2.88
2023-02-20T07:16:18.547Z,3.60
2023-02-20T07:18:45.984Z,6.65
2023-02-20T07:21:13.227Z,5.43
2023-02-20T07:23:40.459Z,3.17
2023-02-20T07:26:07.773Z,3.92
2023-02-20T07:28:38.208Z,4.72
2023-02-20T07:31:05.460Z,5.38
2023-02-20T07:33:32.728Z,5.13
2023-02-20T07:36:00.049Z,4.05
2023-02-20T07:38:27.247Z,2.92
2023-02-20T07:40:54.427Z,3.58
2023-02-20T07:43:21.891Z,7.30
2023-02-20T07:45:52.597Z,3.47
2023-02-20T07:48:19.944Z,3.08
2023-02-20T07:50:47.629Z,6.32
2023-02-20T07:53:17.610Z,3.72
2023-02-20T07:55:44.828Z,5.85
2023-02-20T07:58:12.444Z,4.65
2023-02-20T08:00:39.620Z,3.75
2023-02-20T08:03:06.786Z,4.53
2023-02-20T08:05:48.096Z,5.65
2023-02-20T08:08:16.712Z,4.75
2023-02-20T08:10:43.928Z,4.43
2023-02-20T08:13:11.158Z,4.07
2023-02-20T08:15:38.329Z,3.00
2023-02-20T08:18:12.555Z,4.25
2023-02-20T08:20:42.974Z,2.45
2023-02-20T08:23:18.600Z,1.80
2023-02-20T08:25:45.916Z,5.20
2023-02-20T08:28:14.285Z,7.60
2023-02-20T08:30:41.589Z,4.88
2023-02-20T08:33:08.868Z,2.20
2023-02-20T08:35:36.615Z,2.65
2023-02-20T08:38:05.772Z,2.15
2023-02-20T08:40:33.320Z,4.38
2023-02-20T08:43:01.068Z,2.47
2023-02-20T08:45:28.401Z,4.35
2023-02-20T08:48:02.174Z,2.75
2023-02-20T08:50:29.458Z,1.70
2023-02-20T08:52:56.676Z,4.95
2023-02-20T08:55:23.873Z,1.80
2023-02-20T08:57:51.462Z,4.03
2023-02-20T09:00:19.133Z,4.20
2023-02-20T09:02:51.613Z,2.92
2023-02-20T09:05:19.066Z,2.40
2023-02-20T09:07:46.248Z,3.10
2023-02-20T09:10:13.575Z,2.55
2023-02-20T09:12:42.109Z,2.97
2023-02-20T09:15:10.456Z,2.88
2023-02-20T09:17:38.451Z,2.78
2023-02-20T09:20:09.768Z,3.00
2023-02-20T09:22:39.051Z,3.42
2023-02-20T09:25:06.886Z,1.80
2023-02-20T09:27:34.813Z,3.17
2023-02-20T09:30:02.131Z,4.68
2023-02-20T09:32:29.511Z,5.75
2023-02-20T09:34:57.984Z,1.85
2023-02-20T09:37:25.443Z,2.65
2023-02-20T09:39:52.650Z,1.88
2023-02-20T09:42:37.419Z,1.65
2023-02-20T09:45:24.120Z,1.38
2023-02-20T09:47:59.254Z,2.70
2023-02-20T09:50:58.204Z,1.92
2023-02-20T09:53:30.395Z,4.07
2023-02-20T09:55:59.517Z,3.35
2023-02-20T10:01:18.499Z,2.28
2023-02-20T10:04:09.896Z,2.13
2023-02-20T10:06:37.136Z,2.00
2023-02-20T10:09:06.347Z,6.70
2023-02-20T10:11:52.054Z,3.00
2023-02-20T10:14:41.162Z,2.28
2023-02-20T10:17:30.186Z,5.35
2023-02-20T10:20:26.762Z,3.10
2023-02-20T10:23:23.354Z,2.05
2023-02-20T10:25:54.779Z,2.50
2023-02-20T10:28:23.537Z,3.95
2023-02-20T10:31:33.775Z,3.00
2023-02-20T10:34:16.791Z,1.75
2023-02-20T10:36:50.275Z,3.60
2023-02-20T10:39:19.840Z,2.58
2023-02-20T10:42:13.508Z,2.70
2023-02-20T10:45:03.364Z,3.05
2023-02-20T10:47:42.951Z,2.88
2023-02-20T10:50:42.044Z,4.80
2023-02-20T10:53:20.991Z,2.10
2023-02-20T10:56:13.938Z,2.55
2023-02-20T10:58:49.404Z,2.30
2023-02-20T11:04:03.818Z,2.28
2023-02-20T11:06:45.222Z,3.20
2023-02-20T11:11:44.872Z,3.47
2023-02-20T11:14:12.723Z,1.58
2023-02-20T11:16:51.134Z,4.55
2023-02-20T11:19:26.042Z,3.20
2023-02-20T11:21:53.302Z,2.95
2023-02-20T11:24:31.242Z,8.65
2023-02-20T11:27:03.860Z,2.90
2023-02-20T11:29:41.179Z,3.22
2023-02-20T11:32:25.519Z,2.95
2023-02-20T11:35:14.709Z,3.08
2023-02-20T11:37:54.043Z,3.22
2023-02-20T11:40:30.433Z,1.90
2023-02-20T11:43:11.617Z,5.13
2023-02-20T11:45:39.059Z,3.90
2023-02-20T11:48:15.525Z,3.08
2023-02-20T11:50:51.788Z,2.47
2023-02-20T11:53:25.321Z,4.00
2023-02-20T11:56:13.053Z,1.92
2023-02-20T11:58:41.694Z,1.40
2023-02-20T12:01:32.607Z,3.22
2023-02-20T12:04:00.724Z,4.07
2023-02-20T12:06:34.226Z,4.57
2023-02-20T12:09:03.731Z,5.15
2023-02-20T12:11:34.061Z,3.75
2023-02-20T12:14:14.936Z,5.30
2023-02-20T12:17:00.385Z,5.15
2023-02-20T12:19:48.945Z,4.47
2023-02-20T12:22:35.368Z,3.50
2023-02-20T12:25:27.144Z,2.78
2023-02-20T12:28:08.308Z,4.05
2023-02-20T12:31:00.883Z,3.08
2023-02-20T12:33:48.489Z,3.15
2023-02-20T12:39:07.807Z,6.80
2023-02-20T12:41:56.981Z,2.60
2023-02-20T12:44:42.382Z,3.55
2023-02-20T12:47:31.448Z,5.03
2023-02-20T12:50:40.464Z,4.43
2023-02-20T12:53:31.370Z,5.47
2023-02-20T12:56:24.052Z,6.15
2023-02-20T12:58:52.247Z,5.45
2023-02-20T13:01:39.212Z,3.42
2023-02-20T13:04:22.748Z,5.93
2023-02-20T13:07:25.700Z,5.47
2023-02-20T13:10:11.615Z,6.03
2023-02-20T13:12:38.900Z,4.53
2023-02-20T13:15:24.184Z,5.32
2023-02-20T13:21:49.586Z,9.43
2023-02-20T13:24:21.824Z,4.75
2023-02-20T13:26:52.270Z,9.02
2023-02-20T13:29:28.070Z,10.15
2023-02-20T13:31:57.852Z,5.32
2023-02-20T13:34:39.802Z,6.80
2023-02-20T13:37:35.051Z,7.63
2023-02-20T13:40:27.336Z,5.22
2023-02-20T13:43:12.950Z,6.60
2023-02-20T13:45:43.601Z,6.32
2023-02-20T13:48:38.300Z,5.55
2023-02-20T13:51:14.807Z,6.22
2023-02-20T13:53:52.683Z,9.45
2023-02-20T13:56:47.421Z,5.47
2023-02-20T13:59:18.283Z,7.57
2023-02-20T14:02:04.970Z,9.35
2023-02-20T14:04:33.183Z,10.55
2023-02-20T14:07:00.554Z,6.80
2023-02-20T14:09:31.596Z,6.03
2023-02-20T14:12:12.211Z,6.50
2023-02-20T14:14:44.192Z,7.43
2023-02-20T14:17:41.569Z,6.78
2023-02-20T14:20:23.121Z,10.98
2023-02-20T14:23:07.321Z,9.43
2023-02-20T14:25:34.624Z,8.30
2023-02-20T14:28:14.816Z,7.45
2023-02-20T14:30:42.474Z,6.32
2023-02-20T14:33:28.521Z,9.75
2023-02-20T14:36:35.113Z,8.90
2023-02-20T14:39:23.635Z,6.53
2023-02-20T14:42:01.524Z,6.72
2023-02-20T14:44:30.717Z,13.32
2023-02-20T14:49:36.459Z,6.97
2023-02-20T14:52:10.925Z,10.35
2023-02-20T14:54:41.324Z,9.43
2023-02-20T14:57:15.113Z,6.53
2023-02-20T14:59:42.960Z,5.57
2023-02-20T15:02:34.201Z,6.60
2023-02-20T15:05:08.790Z,5.55
2023-02-20T15:07:39.830Z,8.43
2023-02-20T15:10:30.499Z,6.15
2023-02-20T15:13:05.372Z,6.25
2023-02-20T15:15:46.348Z,6.13
2023-02-20T15:18:34.465Z,7.20
2023-02-20T15:21:04.151Z,7.10
2023-02-20T15:23:45.280Z,5.50
2023-02-20T15:26:34.381Z,7.35
2023-02-20T15:29:24.641Z,11.05
2023-02-20T15:32:20.458Z,4.85
2023-02-20T15:34:55.833Z,8.88
2023-02-20T15:40:16.676Z,6.35
2023-02-20T15:42:45.985Z,8.73
2023-02-20T15:45:30.799Z,8.27
2023-02-20T15:47:59.119Z,8.27
2023-02-20T15:50:27.349Z,8.27
2023-02-20T15:52:55.683Z,5.03
2023-02-20T15:55:23.712Z,7.13
2023-02-20T15:57:56.499Z,7.90
2023-02-20T16:00:26.480Z,6.25
2023-02-20T16:02:54.568Z,5.70
2023-02-20T16:05:22.204Z,5.25
2023-02-20T16:07:49.432Z,7.43
2023-02-20T16:10:19.588Z,6.40
2023-02-20T16:12:48.015Z,5.22
2023-02-20T16:15:18.391Z,9.43
2023-02-20T16:17:45.662Z,10.18
2023-02-20T16:20:29.329Z,6.20
2023-02-20T16:22:56.823Z,5.60
2023-02-20T16:25:24.738Z,6.80
2023-02-20T16:27:54.088Z,7.00
2023-02-20T16:30:34.274Z,5.95
2023-02-20T16:33:03.661Z,5.25
2023-02-20T16:35:30.839Z,7.95
2023-02-20T16:37:58.025Z,5.03
2023-02-20T16:40:25.222Z,5.82
2023-02-20T16:42:52.832Z,7.85
2023-02-20T16:45:21.058Z,6.65
2023-02-20T16:47:50.583Z,8.25
2023-02-20T16:50:23.707Z,6.63
2023-02-20T16:52:52.780Z,6.43
2023-02-20T16:55:32.765Z,7.43
2023-02-20T16:58:00.589Z,9.77
2023-02-20T17:00:34.345Z,10.80
2023-02-20T17:03:03.613Z,5.78
2023-02-20T17:05:33.492Z,9.25
2023-02-20T17:08:01.802Z,9.35
2023-02-20T17:10:29.701Z,6.50
2023-02-20T17:12:57.412Z,8.77
2023-02-20T17:15:25.648Z,9.18
2023-02-20T17:17:54.477Z,7.32
2023-02-20T17:20:24.655Z,10.45
2023-02-20T17:23:03.952Z,10.73
2023-02-20T17:25:33.403Z,8.93
2023-02-20T17:28:00.931Z,6.35
2023-02-20T17:30:28.218Z,7.75
2023-02-20T17:32:55.510Z,6.20
2023-02-20T17:35:22.711Z,8.70
2023-02-20T17:37:50.095Z,8.60
2023-02-20T17:40:18.116Z,9.15
2023-02-20T17:42:45.335Z,11.77
2023-02-20T17:45:12.729Z,12.93
2023-02-20T17:47:39.949Z,9.85
2023-02-20T17:50:07.669Z,9.82
2023-02-20T17:52:34.925Z,10.75
2023-02-20T17:55:02.166Z,10.55
2023-02-20T17:57:29.397Z,7.70
2023-02-20T17:59:56.687Z,11.52
2023-02-20T18:02:23.918Z,8.57
2023-02-20T18:04:51.214Z,8.43
2023-02-20T18:07:18.570Z,6.55
2023-02-20T18:09:51.150Z,5.30
2023-02-20T18:12:21.494Z,5.85
2023-02-20T18:14:48.914Z,8.35
2023-02-20T18:17:16.315Z,7.60
2023-02-20T18:19:44.077Z,4.43
2023-02-20T18:22:11.368Z,6.13
2023-02-20T18:24:38.678Z,8.70
2023-02-20T18:27:05.959Z,6.63
2023-02-20T18:29:33.327Z,5.57
2023-02-20T18:32:02.705Z,5.25
2023-02-20T18:34:31.346Z,4.68
2023-02-20T18:37:00.787Z,5.65
2023-02-20T18:39:28.008Z,5.53
2023-02-20T18:41:58.095Z,5.03
2023-02-20T18:44:28.381Z,3.38
2023-02-20T18:46:59.472Z,3.90
2023-02-20T18:49:26.901Z,5.95
2023-02-20T18:51:54.162Z,3.65
2023-02-20T18:54:27.044Z,5.55
2023-02-20T18:56:55.384Z,4.45
2023-02-20T18:59:23.670Z,3.30
2023-02-20T19:01:54.348Z,5.25
2023-02-20T19:04:23.932Z,6.20
2023-02-20T19:06:52.581Z,3.90
2023-02-20T19:09:22.619Z,2.65
2023-02-20T19:11:56.538Z,5.05
2023-02-20T19:14:26.870Z,3.92
2023-02-20T19:16:57.391Z,3.72
2023-02-20T19:19:27.032Z,4.10
2023-02-20T19:21:54.707Z,4.88
2023-02-20T19:24:22.904Z,7.65
2023-02-20T19:26:51.442Z,5.75
2023-02-20T19:29:18.930Z,3.88
2023-02-20T19:31:49.465Z,5.57
2023-02-20T19:34:16.915Z,4.18
2023-02-20T19:36:44.261Z,3.97
2023-02-20T19:39:13.979Z,3.70
2023-02-20T19:41:41.784Z,3.83
2023-02-20T19:44:15.839Z,4.90
2023-02-20T19:46:44.168Z,6.35
2023-02-20T19:49:12.811Z,4.22
2023-02-20T19:51:51.971Z,2.47
2023-02-20T19:54:23.557Z,5.20
2023-02-20T19:56:53.753Z,4.03
2023-02-20T19:59:22.193Z,4.40
2023-02-20T20:01:51.804Z,3.28
2023-02-20T20:04:21.434Z,4.18
2023-02-20T20:06:50.355Z,4.03
2023-02-20T20:09:34.703Z,4.95
2023-02-20T20:12:03.585Z,4.25
2023-02-20T20:14:30.896Z,5.22
2023-02-20T20:16:58.149Z,4.07
2023-02-20T20:19:25.439Z,3.60
2023-02-20T20:21:52.674Z,3.17
2023-02-20T20:24:19.871Z,4.55
2023-02-20T20:26:47.281Z,3.45
2023-02-20T20:29:14.566Z,3.15
2023-02-20T20:31:42.452Z,4.72
2023-02-20T20:34:09.796Z,3.97
2023-02-20T20:36:37.387Z,3.03
2023-02-20T20:39:05.692Z,3.78
2023-02-20T20:41:44.076Z,5.20
2023-02-20T20:44:12.764Z,3.10
2023-02-20T20:46:40.834Z,3.80
2023-02-20T20:49:08.073Z,5.60
2023-02-20T20:51:35.314Z,3.80
2023-02-20T20:54:05.228Z,3.97
2023-02-20T20:56:34.154Z,3.83
2023-02-20T20:59:01.348Z,6.03
2023-02-20T21:01:28.570Z,5.25
2023-02-20T21:03:55.788Z,3.13
2023-02-20T21:06:22.962Z,5.20
2023-02-20T21:08:50.156Z,5.18
2023-02-20T21:11:17.791Z,6.55
2023-02-20T21:13:47.429Z,4.40
2023-02-20T21:16:15.561Z,4.80
2023-02-20T21:18:42.840Z,4.32
2023-02-20T21:21:10.020Z,5.82
2023-02-20T21:23:37.270Z,5.20
2023-02-20T21:26:04.432Z,3.42
2023-02-20T21:28:31.792Z,3.47
2023-02-20T21:30:59.016Z,5.03
2023-02-20T21:33:26.215Z,2.92
2023-02-20T21:35:53.393Z,4.05
2023-02-20T21:38:21.146Z,4.63
2023-02-20T21:40:48.441Z,4.75
2023-02-20T21:43:34.427Z,5.93
2023-02-20T21:46:01.713Z,3.25
2023-02-20T21:48:29.475Z,6.75
2023-02-20T21:50:56.656Z,4.15
2023-02-20T21:53:23.832Z,4.85
2023-02-20T21:55:51.487Z,4.22
2023-02-20T21:58:19.441Z,3.20
2023-02-20T22:00:46.736Z,7.53
2023-02-20T22:03:13.897Z,6.30
2023-02-20T22:05:41.067Z,5.25
2023-02-20T22:08:26.838Z,6.15
2023-02-20T22:11:12.952Z,7.57
2023-02-20T22:13:58.854Z,3.25
2023-02-20T22:16:44.656Z,6.78
2023-02-20T22:19:30.752Z,7.82
2023-02-20T22:22:19.403Z,5.03
2023-02-20T22:25:05.160Z,5.68
2023-02-20T22:27:50.967Z,7.45
2023-02-20T22:30:39.385Z,5.07
2023-02-20T22:33:25.098Z,6.07
2023-02-20T22:36:12.132Z,5.43
2023-02-20T22:38:57.854Z,4.30
2023-02-20T22:41:43.863Z,6.55
2023-02-20T22:44:29.571Z,5.97
2023-02-20T22:47:15.668Z,6.90
2023-02-20T22:50:01.400Z,6.63
2023-02-20T22:52:47.055Z,5.00
2023-02-20T22:55:32.840Z,6.68
2023-02-20T22:58:18.621Z,8.23
2023-02-20T23:01:04.428Z,5.65
2023-02-20T23:03:53.244Z,8.63
2023-02-20T23:06:39.832Z,6.22
2023-02-20T23:09:27.266Z,5.03
2023-02-20T23:12:13.712Z,5.65
2023-02-20T23:15:00.134Z,4.97
2023-02-20T23:17:45.963Z,5.68
2023-02-20T23:20:38.023Z,9.50
2023-02-20T23:23:25.421Z,8.93
2023-02-20T23:26:11.827Z,9.00
2023-02-20T23:28:57.859Z,10.07
2023-02-20T23:31:55.525Z,9.10
2023-02-20T23:34:41.971Z,10.18
2023-02-20T23:37:27.875Z,10.75
2023-02-20T23:40:15.892Z,7.05
2023-02-20T23:43:03.238Z,7.95
2023-02-20T23:45:48.985Z,7.10
2023-02-20T23:48:38.381Z,9.07
2023-02-20T23:51:29.390Z,8.63
2023-02-20T23:54:15.213Z,8.27
2023-02-20T23:57:01.101Z,6.90
2023-02-20T23:59:46.948Z,9.88
